createdAt,value
2017-07-03T00:01:07.601Z,15.10
2017-07-03T00:03:35.124Z,15.00
2017-07-03T00:06:02.636Z,15.10
2017-07-03T00:08:30.164Z,15.10
2017-07-03T00:10:58.446Z,15.10
2017-07-03T00:13:25.977Z,15.00
2017-07-03T00:15:53.491Z,15.10
2017-07-03T00:18:21.036Z,15.20
2017-07-03T00:20:48.533Z,15.20
2017-07-03T00:23:16.060Z,15.10
2017-07-03T00:25:43.571Z,15.20
2017-07-03T00:28:11.912Z,15.20
2017-07-03T00:30:39.412Z,15.10
2017-07-03T00:33:06.933Z,15.10
2017-07-03T00:35:34.444Z,15.10
2017-07-03T00:38:01.965Z,15.20
2017-07-03T00:40:29.493Z,15.10
2017-07-03T00:42:57.041Z,15.10
2017-07-03T00:45:24.549Z,15.10
2017-07-03T00:47:52.062Z,15.10
2017-07-03T00:50:19.655Z,15.10
2017-07-03T00:52:47.151Z,15.10
2017-07-03T00:55:14.693Z,15.20
2017-07-03T00:57:42.201Z,15.20
2017-07-03T01:00:09.724Z,15.20
2017-07-03T01:02:37.997Z,15.10
2017-07-03T01:05:09.823Z,15.10
2017-07-03T01:07:37.334Z,15.10
2017-07-03T01:10:04.860Z,15.10
2017-07-03T01:12:32.376Z,15.10
2017-07-03T01:14:59.924Z,15.10
2017-07-03T01:17:27.451Z,15.00
2017-07-03T01:19:55.749Z,14.90
2017-07-03T01:22:23.258Z,14.90
2017-07-03T01:24:50.813Z,14.90
2017-07-03T01:27:18.319Z,15.00
2017-07-03T01:29:45.860Z,15.10
2017-07-03T01:32:14.152Z,15.10
2017-07-03T01:34:41.680Z,15.00
2017-07-03T01:37:09.197Z,15.00
2017-07-03T01:39:36.729Z,15.10
2017-07-03T01:42:04.250Z,15.00
2017-07-03T01:44:31.793Z,15.10
2017-07-03T01:46:59.333Z,15.00
2017-07-03T01:49:26.865Z,15.00
2017-07-03T01:51:54.380Z,15.00
2017-07-03T01:54:21.932Z,15.00
2017-07-03T01:56:49.445Z,15.00
2017-07-03T01:59:16.964Z,15.00
2017-07-03T02:01:45.257Z,15.00
2017-07-03T02:04:13.545Z,15.00
2017-07-03T02:06:41.053Z,14.90
2017-07-03T02:09:08.599Z,15.00
2017-07-03T02:11:36.101Z,15.00
2017-07-03T02:14:04.404Z,15.00
2017-07-03T02:16:31.924Z,15.00
2017-07-03T02:18:59.454Z,15.00
2017-07-03T02:21:26.976Z,15.00
2017-07-03T02:23:54.492Z,15.00
2017-07-03T02:26:21.988Z,15.00
2017-07-03T02:28:49.514Z,14.90
2017-07-03T02:31:17.021Z,14.90
2017-07-03T02:33:44.598Z,15.00
2017-07-03T02:36:12.124Z,15.00
2017-07-03T02:38:39.640Z,14.90
2017-07-03T02:41:07.147Z,14.90
2017-07-03T02:43:34.676Z,14.80
2017-07-03T02:46:02.942Z,14.80
2017-07-03T02:48:30.482Z,14.70
2017-07-03T02:50:57.992Z,14.80
2017-07-03T02:53:25.581Z,14.80
2017-07-03T02:55:53.084Z,14.80
2017-07-03T02:58:20.617Z,14.80
2017-07-03T03:00:48.127Z,14.80
2017-07-03T03:03:15.649Z,14.70
2017-07-03T03:05:43.153Z,14.70
2017-07-03T03:08:10.684Z,14.70
2017-07-03T03:10:38.951Z,14.70
2017-07-03T03:13:06.470Z,14.60
2017-07-03T03:15:33.984Z,14.70
2017-07-03T03:18:01.512Z,14.70
2017-07-03T03:20:29.028Z,14.70
2017-07-03T03:22:56.580Z,14.70
2017-07-03T03:25:24.085Z,14.70
2017-07-03T03:27:51.607Z,14.60
2017-07-03T03:30:19.105Z,14.60
2017-07-03T03:32:46.636Z,14.70
2017-07-03T03:35:14.160Z,14.70
2017-07-03T03:37:41.720Z,14.70
2017-07-03T03:40:09.239Z,14.70
2017-07-03T03:42:36.765Z,14.70
2017-07-03T03:45:04.264Z,14.80
2017-07-03T03:47:32.557Z,14.80
2017-07-03T03:50:00.066Z,14.70
2017-07-03T03:52:27.589Z,14.70
2017-07-03T03:54:55.113Z,14.80
2017-07-03T03:57:23.414Z,14.80
2017-07-03T03:59:50.937Z,14.70
2017-07-03T04:02:18.879Z,14.80
2017-07-03T04:04:46.384Z,14.90
2017-07-03T04:07:14.680Z,14.90
2017-07-03T04:09:42.184Z,14.80
2017-07-03T04:12:09.704Z,14.90
2017-07-03T04:14:37.217Z,15.00
2017-07-03T04:17:04.755Z,15.00
2017-07-03T04:19:32.252Z,15.00
2017-07-03T04:21:59.776Z,15.10
2017-07-03T04:24:27.288Z,15.10
2017-07-03T04:26:54.847Z,15.10
2017-07-03T04:29:22.372Z,15.20
2017-07-03T04:31:49.880Z,15.20
2017-07-03T04:34:17.371Z,15.30
2017-07-03T04:36:44.918Z,15.40
2017-07-03T04:39:12.425Z,15.50
2017-07-03T04:41:39.967Z,15.50
2017-07-03T04:44:07.471Z,15.50
2017-07-03T04:46:34.984Z,15.60
2017-07-03T04:49:03.320Z,15.70
2017-07-03T04:51:30.839Z,15.80
2017-07-03T04:53:58.344Z,15.90
2017-07-03T04:56:26.637Z,16.00
2017-07-03T04:58:54.147Z,15.80
2017-07-03T05:01:21.664Z,16.00
2017-07-03T05:03:49.182Z,16.10
2017-07-03T05:06:17.467Z,16.20
2017-07-03T05:08:45.733Z,16.30
2017-07-03T05:11:14.052Z,16.40
2017-07-03T05:13:41.558Z,16.30
2017-07-03T05:16:09.101Z,16.50
2017-07-03T05:18:36.669Z,16.50
2017-07-03T05:21:04.256Z,16.30
2017-07-03T05:23:31.820Z,16.20
2017-07-03T05:25:59.408Z,16.10
2017-07-03T05:28:26.937Z,16.00
2017-07-03T05:30:54.517Z,15.90
2017-07-03T05:33:22.052Z,16.00
2017-07-03T05:35:50.416Z,16.00
2017-07-03T05:38:18.760Z,16.00
2017-07-03T05:40:46.314Z,15.90
2017-07-03T05:43:19.565Z,16.00
2017-07-03T05:45:47.115Z,16.10
2017-07-03T05:48:15.466Z,16.40
2017-07-03T05:50:43.780Z,16.60
2017-07-03T05:53:11.340Z,16.50
2017-07-03T05:55:38.896Z,16.80
2017-07-03T05:58:06.426Z,16.80
2017-07-03T06:00:33.972Z,17.00
2017-07-03T06:03:01.514Z,17.20
2017-07-03T06:05:29.056Z,17.50
2017-07-03T06:07:56.604Z,17.60
2017-07-03T06:10:24.122Z,17.60
2017-07-03T06:12:51.659Z,17.70
2017-07-03T06:15:19.177Z,18.00
2017-07-03T06:17:46.752Z,18.20
2017-07-03T06:20:14.301Z,18.50
2017-07-03T06:22:41.904Z,19.40
2017-07-03T06:25:10.253Z,22.50
2017-07-03T06:27:37.864Z,22.40
2017-07-03T06:30:05.477Z,22.20
2017-07-03T06:32:33.072Z,21.50
2017-07-03T06:35:01.014Z,20.80
2017-07-03T06:37:28.673Z,20.30
2017-07-03T06:39:56.276Z,20.00
2017-07-03T06:42:23.876Z,19.80
2017-07-03T06:44:51.463Z,19.80
2017-07-03T06:47:25.267Z,19.90
2017-07-03T06:49:53.029Z,20.20
2017-07-03T06:52:24.686Z,20.80
2017-07-03T06:57:55.443Z,20.80
2017-07-03T07:00:36.613Z,20.70
2017-07-03T07:03:19.714Z,20.60
2017-07-03T07:08:47.064Z,20.70
2017-07-03T07:13:54.985Z,20.70
2017-07-03T07:16:22.828Z,20.70
2017-07-03T07:18:51.819Z,20.60
2017-07-03T07:21:23.106Z,20.30
2017-07-03T07:23:53.951Z,20.30
2017-07-03T07:26:24.791Z,20.50
2017-07-03T07:28:56.925Z,20.20
2017-07-03T07:31:33.621Z,20.10
2017-07-03T07:34:01.870Z,20.00
2017-07-03T07:39:18.445Z,20.00
2017-07-03T07:44:42.113Z,20.70
2017-07-03T07:55:49.226Z,21.90
2017-07-03T08:10:11.734Z,22.20
2017-07-03T08:12:47.501Z,22.00
2017-07-03T08:15:22.634Z,21.90
2017-07-03T08:17:59.233Z,21.70
2017-07-03T08:23:20.466Z,21.90
2017-07-03T08:25:54.201Z,21.80
2017-07-03T08:31:12.311Z,22.40
2017-07-03T08:33:57.186Z,22.50
2017-07-03T08:39:19.180Z,22.60
2017-07-03T08:44:58.846Z,23.00
2017-07-03T08:53:10.743Z,21.70
2017-07-03T08:55:50.522Z,21.70
2017-07-03T08:58:35.098Z,21.60
2017-07-03T09:07:07.662Z,22.10
2017-07-03T09:09:35.370Z,22.30
2017-07-03T09:12:03.657Z,22.20
2017-07-03T09:14:31.151Z,22.20
2017-07-03T09:16:59.445Z,22.30
2017-07-03T09:19:26.964Z,22.20
2017-07-03T09:21:57.353Z,21.80
2017-07-03T09:24:33.740Z,21.70
2017-07-03T09:27:02.048Z,21.70
2017-07-03T09:29:29.554Z,21.60
2017-07-03T09:31:57.047Z,21.80
2017-07-03T09:34:24.552Z,22.10
2017-07-03T09:36:52.809Z,22.60
2017-07-03T09:39:20.291Z,22.50
2017-07-03T09:41:48.571Z,23.00
2017-07-03T09:44:16.064Z,22.90
2017-07-03T09:46:43.567Z,22.90
2017-07-03T09:49:11.061Z,22.90
2017-07-03T09:51:38.573Z,22.80
2017-07-03T09:54:06.055Z,23.10
2017-07-03T09:56:34.332Z,23.30
2017-07-03T09:59:02.583Z,23.60
2017-07-03T10:01:30.092Z,23.50
2017-07-03T10:03:57.576Z,23.50
2017-07-03T10:06:25.080Z,23.50
2017-07-03T10:08:53.345Z,23.40
2017-07-03T10:11:20.852Z,23.30
2017-07-03T10:13:48.336Z,23.50
2017-07-03T10:16:15.838Z,23.50
2017-07-03T10:18:47.123Z,23.50
2017-07-03T10:21:14.633Z,23.40
2017-07-03T10:23:42.113Z,23.50
2017-07-03T10:26:10.383Z,23.40
2017-07-03T10:28:38.635Z,23.40
2017-07-03T10:31:06.139Z,23.30
2017-07-03T10:33:33.631Z,23.00
2017-07-03T10:36:01.140Z,22.60
2017-07-03T10:38:29.397Z,22.40
2017-07-03T10:40:56.904Z,22.30
2017-07-03T10:43:26.224Z,22.50
2017-07-03T10:45:53.766Z,22.40
2017-07-03T10:48:21.252Z,22.40
2017-07-03T10:50:48.751Z,22.30
2017-07-03T10:53:16.235Z,22.30
2017-07-03T10:55:43.741Z,22.40
2017-07-03T10:58:11.234Z,22.60
2017-07-03T11:00:38.748Z,22.90
2017-07-03T11:03:06.241Z,23.20
2017-07-03T11:05:33.757Z,23.50
2017-07-03T11:08:01.257Z,23.50
2017-07-03T11:10:28.767Z,23.50
2017-07-03T11:12:56.263Z,23.30
2017-07-03T11:15:23.771Z,23.00
2017-07-03T11:17:51.261Z,22.70
2017-07-03T11:20:18.770Z,22.40
2017-07-03T11:22:47.024Z,22.70
2017-07-03T11:25:14.531Z,22.60
2017-07-03T11:27:42.023Z,22.90
2017-07-03T11:30:09.540Z,22.70
2017-07-03T11:32:37.083Z,22.20
2017-07-03T11:35:04.660Z,21.90
2017-07-03T11:37:32.159Z,22.00
2017-07-03T11:39:59.668Z,22.20
2017-07-03T11:42:27.152Z,22.40
2017-07-03T11:44:54.661Z,22.50
2017-07-03T11:47:22.148Z,22.60
2017-07-03T11:49:49.672Z,22.70
2017-07-03T11:52:17.165Z,22.80
2017-07-03T11:54:45.459Z,22.60
2017-07-03T11:57:12.943Z,22.50
2017-07-03T11:59:40.452Z,22.40
2017-07-03T12:02:07.954Z,22.50
2017-07-03T12:04:35.462Z,22.60
2017-07-03T12:07:03.722Z,23.00
2017-07-03T12:09:31.228Z,22.90
2017-07-03T12:11:58.707Z,23.30
2017-07-03T12:14:26.228Z,23.40
2017-07-03T12:17:00.235Z,23.30
2017-07-03T12:19:27.740Z,23.30
2017-07-03T12:21:55.253Z,23.40
2017-07-03T12:24:23.528Z,23.40
2017-07-03T12:26:51.770Z,23.50
2017-07-03T12:29:19.285Z,23.40
2017-07-03T12:31:46.789Z,23.40
2017-07-03T12:34:14.305Z,23.80
2017-07-03T12:36:41.791Z,23.80
2017-07-03T12:39:09.296Z,23.60
2017-07-03T12:41:36.800Z,23.50
2017-07-03T12:44:04.308Z,22.90
2017-07-03T12:46:31.792Z,23.00
2017-07-03T12:49:00.061Z,23.00
2017-07-03T12:51:28.306Z,22.90
2017-07-03T12:53:55.813Z,22.80
2017-07-03T12:56:23.296Z,22.60
2017-07-03T12:58:50.803Z,22.40
2017-07-03T13:01:18.289Z,22.40
2017-07-03T13:03:45.801Z,22.40
2017-07-03T13:06:13.283Z,22.50
2017-07-03T13:08:40.789Z,22.80
2017-07-03T13:11:08.275Z,23.10
2017-07-03T13:13:35.780Z,23.40
2017-07-03T13:16:03.267Z,23.80
2017-07-03T13:18:30.765Z,24.10
2017-07-03T13:20:58.255Z,24.50
2017-07-03T13:23:25.772Z,24.80
2017-07-03T13:25:53.251Z,24.70
2017-07-03T13:28:20.756Z,24.70
2017-07-03T13:30:48.249Z,24.40
2017-07-03T13:33:15.752Z,23.70
2017-07-03T13:35:44.163Z,22.90
2017-07-03T13:38:11.680Z,22.80
2017-07-03T13:40:39.943Z,22.60
2017-07-03T13:43:07.464Z,22.50
2017-07-03T13:45:34.961Z,22.60
2017-07-03T13:48:02.467Z,22.60
2017-07-03T13:50:29.952Z,22.50
2017-07-03T13:52:57.463Z,22.70
2017-07-03T13:55:25.703Z,23.50
2017-07-03T13:57:53.211Z,23.40
2017-07-03T14:00:20.699Z,23.80
2017-07-03T14:02:48.204Z,23.90
2017-07-03T14:05:16.456Z,23.70
2017-07-03T14:07:43.959Z,23.60
2017-07-03T14:10:11.447Z,23.70
2017-07-03T14:12:39.191Z,23.70
2017-07-03T14:15:06.676Z,23.70
2017-07-03T14:17:34.188Z,23.70
2017-07-03T14:20:02.432Z,23.90
2017-07-03T14:22:29.943Z,23.90
2017-07-03T14:24:57.428Z,24.00
2017-07-03T14:27:25.152Z,23.90
2017-07-03T14:29:52.645Z,23.70
2017-07-03T14:32:20.159Z,23.70
2017-07-03T14:34:48.409Z,23.80
2017-07-03T14:37:15.919Z,23.60
2017-07-03T14:39:43.404Z,23.80
2017-07-03T14:42:10.892Z,23.80
2017-07-03T14:44:38.399Z,23.60
2017-07-03T14:47:06.104Z,23.50
2017-07-03T14:49:33.604Z,23.40
2017-07-03T14:52:01.871Z,23.10
2017-07-03T14:54:29.361Z,22.90
2017-07-03T14:56:56.852Z,23.00
2017-07-03T14:59:24.363Z,23.20
2017-07-03T15:01:52.631Z,23.50
2017-07-03T15:04:20.925Z,23.80
2017-07-03T15:06:48.408Z,23.70
2017-07-03T15:09:15.912Z,23.60
2017-07-03T15:11:43.404Z,23.40
2017-07-03T15:14:10.919Z,23.50
2017-07-03T15:16:38.420Z,23.70
2017-07-03T15:19:05.989Z,23.80
2017-07-03T15:21:33.476Z,23.80
2017-07-03T15:24:00.991Z,23.50
2017-07-03T15:26:28.484Z,23.30
2017-07-03T15:28:55.984Z,23.10
2017-07-03T15:31:23.471Z,23.00
2017-07-03T15:33:50.989Z,23.00
2017-07-03T15:36:18.476Z,23.10
2017-07-03T15:38:46.755Z,23.00
2017-07-03T15:41:15.014Z,23.10
2017-07-03T15:43:42.739Z,23.00
2017-07-03T15:46:10.223Z,23.30
2017-07-03T15:48:37.735Z,23.20
2017-07-03T15:51:05.221Z,23.10
2017-07-03T15:53:32.728Z,23.00
2017-07-03T15:56:00.981Z,22.80
2017-07-03T15:58:28.486Z,22.70
2017-07-03T16:00:56.265Z,22.90
2017-07-03T16:03:23.785Z,23.10
2017-07-03T16:05:52.043Z,23.50
2017-07-03T16:08:19.565Z,23.40
2017-07-03T16:10:47.053Z,23.70
2017-07-03T16:13:14.557Z,23.90
2017-07-03T16:15:43.299Z,23.70
2017-07-03T16:18:10.807Z,23.50
2017-07-03T16:20:39.064Z,23.20
2017-07-03T16:23:06.563Z,23.10
2017-07-03T16:25:34.052Z,23.20
2017-07-03T16:28:01.571Z,23.20
2017-07-03T16:30:29.046Z,23.40
2017-07-03T16:32:56.548Z,23.70
2017-07-03T16:35:24.040Z,23.70
2017-07-03T16:37:51.564Z,23.40
2017-07-03T16:40:19.056Z,23.20
2017-07-03T16:42:46.586Z,23.10
2017-07-03T16:45:14.076Z,23.00
2017-07-03T16:47:41.584Z,22.90
2017-07-03T16:50:09.068Z,22.80
2017-07-03T16:52:36.577Z,22.70
2017-07-03T16:55:04.081Z,22.70
2017-07-03T16:57:31.588Z,22.60
2017-07-03T16:59:59.075Z,22.70
2017-07-03T17:02:26.580Z,22.60
2017-07-03T17:04:54.832Z,22.40
2017-07-03T17:07:22.339Z,22.40
2017-07-03T17:09:49.827Z,22.40
2017-07-03T17:12:17.328Z,22.40
2017-07-03T17:14:45.587Z,22.40
2017-07-03T17:17:13.097Z,22.30
2017-07-03T17:19:40.581Z,22.40
2017-07-03T17:22:08.098Z,22.50
2017-07-03T17:24:35.591Z,22.50
2017-07-03T17:27:03.100Z,22.40
2017-07-03T17:29:30.593Z,22.30
2017-07-03T17:31:58.096Z,22.30
2017-07-03T17:34:25.585Z,22.20
2017-07-03T17:36:53.105Z,22.30
2017-07-03T17:39:20.593Z,22.30
2017-07-03T17:41:48.103Z,22.30
2017-07-03T17:44:15.589Z,22.40
2017-07-03T17:46:43.101Z,22.40
2017-07-03T17:49:10.588Z,22.30
2017-07-03T17:51:38.116Z,22.10
2017-07-03T17:54:05.601Z,21.90
2017-07-03T17:56:33.113Z,21.60
2017-07-03T17:59:01.596Z,21.30
2017-07-03T18:01:29.880Z,21.20
2017-07-03T18:03:58.131Z,21.10
2017-07-03T18:06:25.644Z,21.10
2017-07-03T18:08:53.129Z,21.10
2017-07-03T18:11:20.640Z,21.00
2017-07-03T18:13:48.896Z,21.00
2017-07-03T18:16:17.172Z,20.90
2017-07-03T18:18:44.656Z,20.80
2017-07-03T18:21:12.159Z,20.80
2017-07-03T18:23:39.657Z,20.80
2017-07-03T18:26:07.928Z,20.70
2017-07-03T18:28:36.188Z,20.60
2017-07-03T18:31:03.703Z,20.50
2017-07-03T18:33:31.196Z,20.50
2017-07-03T18:35:58.727Z,20.40
2017-07-03T18:38:26.213Z,20.30
2017-07-03T18:40:53.711Z,20.20
2017-07-03T18:43:21.960Z,20.10
2017-07-03T18:45:49.463Z,19.90
2017-07-03T18:48:17.177Z,20.00
2017-07-03T18:50:44.908Z,19.90
2017-07-03T18:53:12.402Z,19.80
2017-07-03T18:55:40.139Z,19.80
2017-07-03T18:58:07.627Z,19.70
2017-07-03T19:00:35.348Z,19.70
2017-07-03T19:03:02.915Z,19.60
2017-07-03T19:05:30.417Z,19.60
2017-07-03T19:07:57.976Z,19.50
2017-07-03T19:10:25.480Z,19.40
2017-07-03T19:12:52.968Z,19.40
2017-07-03T19:15:20.557Z,19.30
2017-07-03T19:17:48.016Z,19.20
2017-07-03T19:20:15.519Z,19.20
2017-07-03T19:22:43.021Z,19.10
2017-07-03T19:25:10.509Z,19.10
2017-07-03T19:27:38.775Z,19.00
2017-07-03T19:30:06.271Z,18.80
2017-07-03T19:32:33.783Z,18.90
2017-07-03T19:35:01.291Z,18.90
2017-07-03T19:37:28.804Z,18.80
2017-07-03T19:39:56.292Z,18.80
2017-07-03T19:42:24.567Z,18.70
2017-07-03T19:44:52.820Z,18.60
2017-07-03T19:47:20.333Z,18.50
2017-07-03T19:49:47.828Z,18.50
2017-07-03T19:52:15.335Z,18.50
2017-07-03T19:54:42.837Z,18.50
2017-07-03T19:57:10.349Z,18.40
2017-07-03T19:59:37.844Z,18.40
2017-07-03T20:02:05.355Z,18.40
2017-07-03T20:04:33.608Z,18.30
2017-07-03T20:07:01.127Z,18.20
2017-07-03T20:09:28.628Z,18.30
2017-07-03T20:11:56.139Z,18.20
2017-07-03T20:14:23.636Z,18.20
2017-07-03T20:16:51.147Z,18.10
2017-07-03T20:19:18.655Z,18.10
2017-07-03T20:21:46.168Z,18.10
2017-07-03T20:24:13.662Z,18.10
2017-07-03T20:26:41.231Z,18.10
2017-07-03T20:29:08.727Z,18.10
2017-07-03T20:31:36.995Z,18.00
2017-07-03T20:34:05.252Z,18.00
2017-07-03T20:36:32.759Z,17.90
2017-07-03T20:39:00.304Z,18.00
2017-07-03T20:41:27.818Z,18.00
2017-07-03T20:43:55.309Z,17.90
2017-07-03T20:46:23.603Z,17.90
2017-07-03T20:48:51.116Z,17.90
2017-07-03T20:51:18.631Z,17.90
2017-07-03T20:53:46.118Z,17.80
2017-07-03T20:56:13.692Z,17.80
2017-07-03T20:58:41.176Z,17.80
2017-07-03T21:01:08.683Z,17.80
2017-07-03T21:03:36.192Z,17.80
2017-07-03T21:06:04.148Z,17.80
2017-07-03T21:08:31.637Z,17.80
2017-07-03T21:10:59.907Z,17.70
2017-07-03T21:13:27.400Z,17.60
2017-07-03T21:15:54.905Z,17.70
2017-07-03T21:18:22.401Z,17.70
2017-07-03T21:20:49.920Z,17.70
2017-07-03T21:23:17.415Z,17.70
2017-07-03T21:25:45.692Z,17.60
2017-07-03T21:28:13.944Z,17.60
2017-07-03T21:30:41.457Z,17.50
2017-07-03T21:33:08.944Z,17.60
2017-07-03T21:35:36.459Z,17.60
2017-07-03T21:38:03.959Z,17.60
2017-07-03T21:40:31.475Z,17.50
2017-07-03T21:42:58.967Z,17.50
2017-07-03T21:45:26.474Z,17.50
2017-07-03T21:47:54.731Z,17.40
2017-07-03T21:50:22.245Z,17.40
2017-07-03T21:52:49.764Z,17.40
2017-07-03T21:55:18.048Z,17.40
2017-07-03T21:57:46.308Z,17.40
2017-07-03T22:00:13.812Z,17.30
2017-07-03T22:02:41.534Z,17.40
2017-07-03T22:05:09.050Z,17.40
2017-07-03T22:07:36.537Z,17.40
2017-07-03T22:10:04.051Z,17.40
2017-07-03T22:12:31.537Z,17.30
2017-07-03T22:14:59.043Z,17.40
2017-07-03T22:17:26.537Z,17.40
2017-07-03T22:19:54.046Z,17.30
2017-07-03T22:22:21.531Z,17.30
2017-07-03T22:24:49.810Z,17.30
2017-07-03T22:27:18.067Z,17.20
2017-07-03T22:29:45.573Z,17.20
2017-07-03T22:32:13.061Z,17.20
2017-07-03T22:34:40.699Z,17.20
2017-07-03T22:37:08.197Z,17.10
2017-07-03T22:39:35.704Z,17.10
2017-07-03T22:42:03.191Z,17.20
2017-07-03T22:44:30.695Z,17.10
2017-07-03T22:46:58.968Z,17.10
2017-07-03T22:49:26.484Z,17.00
2017-07-03T22:51:54.637Z,17.00
2017-07-03T22:54:22.149Z,17.00
2017-07-03T22:56:49.895Z,17.00
2017-07-03T22:59:17.404Z,17.00
2017-07-03T23:01:44.897Z,17.00
2017-07-03T23:04:12.412Z,17.00
2017-07-03T23:06:40.681Z,17.00
2017-07-03T23:09:08.940Z,16.90
2017-07-03T23:11:36.452Z,16.80
2017-07-03T23:14:03.944Z,16.90
2017-07-03T23:16:31.457Z,16.90
2017-07-03T23:18:58.944Z,16.80
2017-07-03T23:21:26.456Z,16.80
2017-07-03T23:23:54.707Z,16.70
2017-07-03T23:26:22.216Z,16.60
2017-07-03T23:28:49.725Z,16.70
2017-07-03T23:31:17.236Z,16.70
2017-07-03T23:33:44.749Z,16.80
2017-07-03T23:36:13.058Z,16.80
2017-07-03T23:38:41.535Z,16.90
2017-07-03T23:41:09.823Z,16.90
2017-07-03T23:43:37.325Z,16.80
2017-07-03T23:46:04.845Z,16.90
2017-07-03T23:48:32.337Z,16.90
2017-07-03T23:50:59.892Z,16.90
2017-07-03T23:53:27.382Z,16.90
2017-07-03T23:55:54.887Z,16.90
2017-07-03T23:58:22.391Z,16.80
